หน้าหลัก
METAR-TAF:

METAR-TAF

ท่าอากาศยาน :

Saint-Pierre, แซ็งปีแยร์และมีเกอลง

ละติจูด: 46-46N, ลองจิจูด: 056-10W, ความสูง: 3 ม.

การสังเกตสภาพอากาศปัจจุบัน

รายงานได้ทำขึ้นเมื่อ 41 นาทีที่แล้ว ณ เวลา 02:30 UTC
ลม 10 นอตจากตะวันตก/ตะวันตกเฉียงใต้
อุณหภูมิ 17°C
ความชื้น 100%
ความกดอากาศ 1011 hPa
ทัศนวิสัย: 0550 ม.
หมอก,

METAR: LFVP 190230Z AUTO 25010KT 0650 0550 R26/0750N FG VV/// 17/17 Q1011

เวลา: 01:11 (03:11 UTC)

การพยากรณ์

รายงานได้ทำขึ้นเมื่อ 10 ชั่วโมงและ 11 นาทีที่แล้ว ณ เวลา 17:00 UTC
การพยากรณ์มีผลตั้งแต่วันที่ 18 ณ เวลา 18 UTC จนถึงวันที่ 19 ณ เวลา 03 UTC
ลม 10 นอตจากตะวันตกเฉียงใต้
ทัศนวิสัย: 1200 ม.
มีเมฆมาก มืดครึ้มที่ความสูง 200 ฟุต
หมอกน้ำค้าง
ชั่วคราว
ตั้งแต่วันที่ 18 ณ เวลา 18 UTC จนถึงวันที่ 19 ณ เวลา 03 UTC
ทัศนวิสัย: 0600 ม.
หมอก
กำลังกลายเป็น
ตั้งแต่วันที่ 18 ณ เวลา 20 UTC จนถึงวันที่ 18 ณ เวลา 22 UTC
ลม 20 นอตจากใต้/ตะวันตกเฉียงใต้

TAF: LFVP 181700Z 1818/1903 23010KT 1200 BR OVC002 TEMPO 1818/1903 0600 FG VV/// BECMG 1820/1822 21020KT

สังเกตการณ์สภาพอากาศและพยากรณ์อากาศของสนามบินมากกว่า 4000 แห่ง (รายงาน METAR และ TAF).

สถานีที่ดูได้จะแสดงไว้ด้วยจุดสีเหลืองและสีแดงบนแผนที่.

เลื่อนเมาส์ไปเหนือจุดเพื่อดูชื่อสถานี.

แล้วคลิกเพื่อดูสังเกตการณ์และการพยากรณ์สภาพอากาศ.

ในการเปลี่ยนแผนที่: คลิกที่ปุ่มสีเขียวที่มีกากบาทสีดำเพื่อซูมเข้า; ที่ปุ่มสีเขียวที่มีขีดเพื่อซูมออก; หรือที่ลูกศรสีเขียวเพื่อไปยังแผนที่ที่อยู่ติดกัน.


METAR-TAF: